< < Back
Terminal Aerodrome Forecast


Current Version              Previous Versions:   1  2  3  4  5  6  7  8  9  

Terminal Aerodrome Forecast

159
FTUS44 KMOB 270540
TAFPNS
TAF
KPNS 270540Z 2706/2806 23006KT P6SM BKN250
     FM271200 03006KT 4SM BR OVC007
     FM271800 09010KT P6SM SCT250
     FM272100 13008KT P6SM OVC250=

Latest METAR

750
SAUS70 KWBC 271200 RRQ
MTRPNS
METAR KPNS 271153Z 06007KT 10SM CLR 20/17 A2978 RMK AO2 SLP087 T02000167
10233 20200 51024


USA.gov is the U.S. government's official web portal to all federal, state and local government web resources and services.